createdAt,value
2019-02-12T00:00:46.392Z,99.90
2019-02-12T00:03:15.688Z,99.90
2019-02-12T00:05:44.989Z,99.90
2019-02-12T00:08:14.264Z,99.90
2019-02-12T00:10:43.633Z,99.90
2019-02-12T00:13:12.999Z,99.90
2019-02-12T00:15:42.293Z,99.90
2019-02-12T00:18:11.860Z,99.90
2019-02-12T00:20:41.167Z,99.90
2019-02-12T00:23:10.768Z,99.90
2019-02-12T00:25:40.061Z,99.90
2019-02-12T00:28:09.975Z,99.90
2019-02-12T00:30:39.267Z,99.90
2019-02-12T00:33:08.648Z,99.90
2019-02-12T00:35:38.021Z,99.90
2019-02-12T00:38:07.680Z,99.90
2019-02-12T00:40:37.281Z,99.90
2019-02-12T00:43:06.578Z,99.90
2019-02-12T00:45:36.296Z,99.90
2019-02-12T00:48:05.661Z,99.90
2019-02-12T00:50:34.951Z,99.90
2019-02-12T00:53:04.236Z,99.90
2019-02-12T00:55:33.536Z,99.90
2019-02-12T00:58:02.856Z,99.90
2019-02-12T01:00:32.146Z,99.90
2019-02-12T01:03:01.796Z,99.90
2019-02-12T01:05:31.412Z,99.90
2019-02-12T01:08:00.727Z,99.90
2019-02-12T01:10:30.010Z,99.90
2019-02-12T01:12:59.612Z,99.90
2019-02-12T01:15:29.276Z,99.90
2019-02-12T01:17:58.588Z,99.90
2019-02-12T01:20:28.530Z,99.90
2019-02-12T01:22:58.144Z,99.90
2019-02-12T01:25:27.430Z,99.90
2019-02-12T01:27:56.754Z,99.90
2019-02-12T01:30:26.046Z,99.90
2019-02-12T01:32:55.752Z,99.90
2019-02-12T01:35:25.058Z,99.90
2019-02-12T01:37:54.384Z,99.90
2019-02-12T01:40:24.055Z,99.90
2019-02-12T01:42:53.375Z,99.90
2019-02-12T01:45:22.669Z,99.90
2019-02-12T01:47:52.266Z,99.90
2019-02-12T01:50:21.967Z,99.90
2019-02-12T01:52:51.267Z,99.90
2019-02-12T01:55:20.574Z,99.90
2019-02-12T01:57:49.959Z,99.90
2019-02-12T02:00:19.252Z,99.90
2019-02-12T02:02:48.559Z,99.90
2019-02-12T02:05:18.155Z,99.90
2019-02-12T02:07:47.534Z,99.90
2019-02-12T02:10:18.176Z,99.90
2019-02-12T02:12:47.493Z,99.90
2019-02-12T02:15:17.464Z,99.90
2019-02-12T02:17:47.179Z,99.90
2019-02-12T02:20:16.835Z,99.90
2019-02-12T02:22:46.169Z,99.90
2019-02-12T02:25:15.577Z,99.90
2019-02-12T02:27:45.233Z,99.90
2019-02-12T02:30:15.582Z,99.90
2019-02-12T02:32:44.970Z,99.90
2019-02-12T02:35:14.272Z,99.90
2019-02-12T02:37:43.643Z,99.90
2019-02-12T02:40:12.992Z,99.90
2019-02-12T02:42:42.295Z,99.90
2019-02-12T02:45:12.335Z,99.90
2019-02-12T02:47:41.708Z,99.90
2019-02-12T02:50:11.160Z,99.90
2019-02-12T02:52:40.539Z,99.90
2019-02-12T02:55:10.173Z,99.90
2019-02-12T02:57:39.507Z,99.90
2019-02-12T03:00:09.708Z,99.90
2019-02-12T03:02:39.013Z,99.90
2019-02-12T03:05:09.897Z,99.90
2019-02-12T03:07:39.304Z,99.90
2019-02-12T03:10:09.101Z,99.90
2019-02-12T03:12:38.764Z,99.90
2019-02-12T03:15:09.143Z,99.90
2019-02-12T03:17:38.634Z,99.90
2019-02-12T03:20:09.276Z,99.90
2019-02-12T03:22:38.718Z,99.90
2019-02-12T03:25:08.485Z,99.90
2019-02-12T03:27:37.734Z,99.90
2019-02-12T03:30:07.617Z,99.90
2019-02-12T03:32:37.302Z,99.90
2019-02-12T03:35:07.468Z,99.90
2019-02-12T03:37:37.143Z,99.90
2019-02-12T03:40:07.639Z,99.90
2019-02-12T03:42:37.011Z,99.90
2019-02-12T03:45:06.851Z,99.90
2019-02-12T03:47:37.253Z,99.90
2019-02-12T03:50:07.395Z,99.90
2019-02-12T03:52:36.611Z,99.90
2019-02-12T03:55:06.670Z,99.90
2019-02-12T03:57:36.149Z,99.90
2019-02-12T04:00:05.945Z,99.90
2019-02-12T04:02:35.170Z,99.90
2019-02-12T04:05:04.633Z,99.90
2019-02-12T04:07:33.861Z,99.90
2019-02-12T04:10:03.027Z,99.90
2019-02-12T04:12:32.251Z,99.90
2019-02-12T04:15:01.773Z,99.90
2019-02-12T04:17:30.955Z,99.90
2019-02-12T04:20:05.300Z,99.90
2019-02-12T04:22:38.230Z,99.90
2019-02-12T04:25:07.490Z,99.90
2019-02-12T04:27:36.700Z,99.90
2019-02-12T04:30:06.157Z,99.90
2019-02-12T04:32:35.399Z,99.90
2019-02-12T04:35:04.614Z,99.90
2019-02-12T04:37:33.842Z,99.90
2019-02-12T04:40:03.101Z,99.90
2019-02-12T04:42:32.730Z,99.90
2019-02-12T04:45:02.052Z,99.90
2019-02-12T04:47:31.200Z,99.90
2019-02-12T04:50:00.798Z,99.90
2019-02-12T04:52:31.922Z,99.90
2019-02-12T04:55:01.042Z,99.90
2019-02-12T04:57:30.483Z,99.90
2019-02-12T04:59:59.749Z,99.90
2019-02-12T05:02:29.624Z,99.90
2019-02-12T05:04:58.875Z,99.90
2019-02-12T05:07:28.113Z,99.90
2019-02-12T05:09:57.289Z,99.90
2019-02-12T05:12:26.693Z,99.90
2019-02-12T05:14:55.937Z,99.90
2019-02-12T05:17:25.240Z,99.90
2019-02-12T05:19:54.490Z,99.90
2019-02-12T05:22:23.727Z,99.90
2019-02-12T05:24:53.226Z,99.90
2019-02-12T05:27:22.454Z,99.90
2019-02-12T05:29:51.601Z,99.90
2019-02-12T05:32:20.807Z,99.90
2019-02-12T05:34:50.321Z,99.90
2019-02-12T05:37:19.600Z,99.90
2019-02-12T05:39:49.005Z,99.90
2019-02-12T05:42:18.255Z,99.90
2019-02-12T05:44:47.470Z,99.90
2019-02-12T05:47:16.693Z,99.90
2019-02-12T05:49:46.068Z,99.90
2019-02-12T05:52:15.247Z,99.90
2019-02-12T05:54:44.997Z,99.90
2019-02-12T05:57:14.571Z,99.90
2019-02-12T05:59:43.801Z,99.90
2019-02-12T06:02:12.990Z,99.90
2019-02-12T06:04:42.237Z,99.90
2019-02-12T06:07:17.924Z,99.90
2019-02-12T06:09:47.099Z,99.90
2019-02-12T06:12:16.241Z,99.90
2019-02-12T06:14:45.649Z,99.90
2019-02-12T06:17:15.443Z,99.90
2019-02-12T06:19:44.741Z,99.90
2019-02-12T06:22:13.922Z,99.90
2019-02-12T06:24:43.056Z,99.90
2019-02-12T06:27:12.202Z,99.90
2019-02-12T06:29:41.736Z,99.90
2019-02-12T06:32:11.352Z,99.90
2019-02-12T06:34:40.880Z,99.90
2019-02-12T06:37:10.427Z,99.90
2019-02-12T06:39:39.674Z,99.90
2019-02-12T06:42:08.829Z,99.90
2019-02-12T06:44:38.034Z,99.90
2019-02-12T06:47:07.350Z,99.90
2019-02-12T06:49:37.090Z,99.90
2019-02-12T06:52:06.522Z,99.90
2019-02-12T06:54:35.770Z,99.90
2019-02-12T06:57:04.962Z,99.90
2019-02-12T06:59:34.548Z,99.90
2019-02-12T07:02:39.685Z,99.90
2019-02-12T07:05:09.371Z,99.90
2019-02-12T07:08:25.677Z,99.90
2019-02-12T07:10:55.556Z,99.90
2019-02-12T07:13:42.568Z,99.90
2019-02-12T07:16:51.240Z,99.90
2019-02-12T07:19:49.966Z,99.90
2019-02-12T07:22:59.573Z,99.90
2019-02-12T07:25:55.223Z,99.90
2019-02-12T07:29:10.749Z,99.90
2019-02-12T07:32:09.435Z,99.90
2019-02-12T07:35:32.212Z,99.90
2019-02-12T07:38:26.517Z,99.90
2019-02-12T07:41:30.094Z,99.90
2019-02-12T07:44:21.892Z,99.90
2019-02-12T07:47:30.713Z,99.90
2019-02-12T07:50:30.644Z,99.90
2019-02-12T07:53:41.381Z,99.90
2019-02-12T07:56:39.745Z,99.90
2019-02-12T07:59:42.445Z,99.90
2019-02-12T08:02:38.724Z,99.90
2019-02-12T08:05:33.686Z,99.90
2019-02-12T08:08:49.193Z,99.90
2019-02-12T08:11:53.017Z,99.90
2019-02-12T08:14:46.966Z,99.90
2019-02-12T08:17:51.521Z,99.90
2019-02-12T08:21:03.804Z,99.90
2019-02-12T08:24:10.306Z,99.90
2019-02-12T08:26:59.810Z,99.90
2019-02-12T08:30:12.289Z,99.90
2019-02-12T08:33:30.737Z,99.90
2019-02-12T08:36:12.489Z,99.90
2019-02-12T08:39:18.131Z,99.90
2019-02-12T08:42:28.536Z,99.90
2019-02-12T08:45:25.621Z,99.90
2019-02-12T08:48:27.087Z,99.90
2019-02-12T08:51:31.119Z,99.90
2019-02-12T08:54:41.886Z,99.90
2019-02-12T08:58:01.089Z,99.90
2019-02-12T09:00:51.962Z,99.90
2019-02-12T09:03:52.001Z,99.90
2019-02-12T09:06:53.269Z,99.90
2019-02-12T09:09:58.587Z,99.90
2019-02-12T09:13:12.410Z,99.90
2019-02-12T09:16:17.101Z,99.90
2019-02-12T09:19:10.081Z,99.90
2019-02-12T09:22:13.091Z,99.90
2019-02-12T09:25:06.171Z,99.90
2019-02-12T09:28:07.954Z,99.90
2019-02-12T09:31:18.842Z,99.90
2019-02-12T09:34:34.431Z,99.90
2019-02-12T09:37:57.070Z,99.90
2019-02-12T09:40:51.088Z,99.90
2019-02-12T09:44:16.516Z,99.90
2019-02-12T09:47:30.068Z,99.90
2019-02-12T09:50:43.601Z,99.90
2019-02-12T09:54:08.419Z,99.90
2019-02-12T09:57:12.832Z,99.90
2019-02-12T10:00:01.404Z,99.90
2019-02-12T10:03:11.685Z,99.90
2019-02-12T10:06:21.762Z,99.90
2019-02-12T10:09:55.039Z,99.90
2019-02-12T10:13:01.209Z,99.90
2019-02-12T10:16:32.561Z,99.90
2019-02-12T10:19:28.266Z,99.90
2019-02-12T10:22:19.167Z,99.10
2019-02-12T10:24:58.563Z,98.70
2019-02-12T10:28:08.752Z,98.70
2019-02-12T10:30:55.367Z,97.70
2019-02-12T10:33:25.013Z,97.50
2019-02-12T10:35:54.189Z,96.00
2019-02-12T10:38:23.402Z,96.60
2019-02-12T10:40:53.149Z,95.40
2019-02-12T10:43:22.465Z,95.80
2019-02-12T10:45:52.009Z,94.30
2019-02-12T10:48:21.639Z,93.90
2019-02-12T10:50:51.248Z,94.10
2019-02-12T10:53:21.067Z,94.80
2019-02-12T10:55:50.613Z,93.90
2019-02-12T10:58:19.899Z,93.30
2019-02-12T11:00:49.837Z,92.90
2019-02-12T11:03:19.101Z,91.00
2019-02-12T11:05:48.463Z,90.80
2019-02-12T11:08:17.685Z,90.00
2019-02-12T11:10:47.176Z,89.60
2019-02-12T11:13:16.426Z,89.20
2019-02-12T11:15:45.678Z,89.80
2019-02-12T11:18:15.150Z,90.50
2019-02-12T11:20:44.331Z,87.50
2019-02-12T11:23:13.502Z,90.20
2019-02-12T11:25:42.790Z,88.80
2019-02-12T11:28:12.020Z,88.40
2019-02-12T11:30:41.192Z,88.50
2019-02-12T11:33:10.658Z,83.00
2019-02-12T11:35:39.890Z,80.00
2019-02-12T11:38:09.128Z,80.30
2019-02-12T11:40:38.643Z,81.20
2019-02-12T11:43:07.884Z,78.30
2019-02-12T11:45:37.036Z,80.00
2019-02-12T11:48:06.532Z,78.60
2019-02-12T11:50:35.779Z,79.50
2019-02-12T11:53:05.285Z,77.10
2019-02-12T11:55:34.583Z,77.60
2019-02-12T11:58:04.596Z,78.50
2019-02-12T12:00:39.499Z,76.20
2019-02-12T12:03:16.064Z,77.60
2019-02-12T12:05:45.899Z,80.10
2019-02-12T12:08:15.059Z,76.00
2019-02-12T12:10:44.583Z,74.00
2019-02-12T12:13:13.830Z,73.00
2019-02-12T12:15:43.257Z,78.30
2019-02-12T12:18:12.434Z,77.20
2019-02-12T12:20:41.671Z,77.10
2019-02-12T12:23:10.893Z,76.80
2019-02-12T12:25:40.536Z,78.70
2019-02-12T12:28:09.793Z,76.40
2019-02-12T12:30:39.399Z,74.80
2019-02-12T12:33:09.071Z,72.10
2019-02-12T12:35:38.220Z,74.30
2019-02-12T12:38:07.676Z,71.20
2019-02-12T12:40:37.189Z,70.40
2019-02-12T12:43:06.493Z,71.80
2019-02-12T12:45:36.092Z,66.30
2019-02-12T12:48:05.341Z,68.10
2019-02-12T12:50:34.588Z,66.50
2019-02-12T12:53:03.774Z,65.50
2019-02-12T12:55:33.660Z,70.80
2019-02-12T12:58:02.837Z,71.80
2019-02-12T13:00:32.068Z,72.10
2019-02-12T13:03:01.407Z,76.10
2019-02-12T13:05:30.719Z,79.60
2019-02-12T13:07:59.882Z,81.90
2019-02-12T13:10:29.108Z,83.50
2019-02-12T13:12:58.682Z,87.10
2019-02-12T13:15:27.924Z,85.10
2019-02-12T13:17:57.984Z,82.30
2019-02-12T13:20:27.180Z,80.00
2019-02-12T13:22:56.692Z,81.70
2019-02-12T13:25:25.930Z,82.60
2019-02-12T13:27:55.836Z,82.30
2019-02-12T13:30:25.108Z,81.60
2019-02-12T13:32:54.715Z,76.20
2019-02-12T13:35:23.867Z,75.70
2019-02-12T13:37:53.651Z,74.50
2019-02-12T13:40:23.001Z,74.90
2019-02-12T13:42:52.248Z,74.50
2019-02-12T13:45:21.507Z,75.70
2019-02-12T13:47:50.701Z,78.00
2019-02-12T13:50:19.933Z,76.30
2019-02-12T13:52:49.565Z,78.30
2019-02-12T13:55:19.166Z,77.30
2019-02-12T13:57:48.384Z,77.20
2019-02-12T14:00:17.689Z,74.60
2019-02-12T14:02:47.407Z,75.50
2019-02-12T14:05:17.474Z,78.00
2019-02-12T14:07:46.745Z,78.30
2019-02-12T14:10:16.347Z,78.80
2019-02-12T14:12:47.589Z,76.70
2019-02-12T14:15:18.713Z,77.50
2019-02-12T14:17:47.887Z,78.70
2019-02-12T14:20:17.461Z,79.00
2019-02-12T14:22:46.696Z,78.40
2019-02-12T14:25:16.135Z,79.70
2019-02-12T14:27:45.275Z,77.80
2019-02-12T14:30:14.596Z,75.20
2019-02-12T14:32:43.761Z,76.50
2019-02-12T14:35:13.913Z,80.10
2019-02-12T14:37:43.445Z,80.10
2019-02-12T14:40:12.962Z,84.40
2019-02-12T14:42:42.463Z,87.50
2019-02-12T14:45:12.748Z,89.00
2019-02-12T14:47:41.898Z,90.00
2019-02-12T14:50:12.224Z,89.10
2019-02-12T14:52:41.430Z,90.00
2019-02-12T14:55:10.890Z,90.00
2019-02-12T14:57:40.681Z,90.70
2019-02-12T15:00:12.559Z,90.80
2019-02-12T15:02:41.897Z,92.20
2019-02-12T15:05:11.348Z,92.80
2019-02-12T15:07:40.850Z,93.60
2019-02-12T15:10:10.878Z,94.00
2019-02-12T15:12:40.026Z,94.90
2019-02-12T15:15:09.804Z,95.70
2019-02-12T15:17:38.971Z,96.00
2019-02-12T15:20:08.836Z,96.40
2019-02-12T15:22:38.129Z,96.70
2019-02-12T15:25:08.276Z,97.20
2019-02-12T15:27:37.821Z,97.40
2019-02-12T15:30:09.169Z,98.20
2019-02-12T15:32:38.318Z,98.50
2019-02-12T15:35:08.796Z,98.60
2019-02-12T15:37:37.959Z,99.00
2019-02-12T15:40:09.474Z,99.30
2019-02-12T15:42:38.693Z,99.30
2019-02-12T15:45:10.043Z,99.60
2019-02-12T15:47:39.217Z,99.80
2019-02-12T15:50:09.531Z,99.90
2019-02-12T15:52:38.711Z,99.90
2019-02-12T15:55:09.342Z,99.90
2019-02-12T15:57:40.298Z,99.90
2019-02-12T16:00:15.670Z,99.90
2019-02-12T16:02:45.939Z,99.90
2019-02-12T16:05:15.196Z,99.90
2019-02-12T16:07:46.701Z,99.90
2019-02-12T16:10:17.770Z,99.90
2019-02-12T16:12:48.926Z,99.90
2019-02-12T16:15:21.144Z,99.90
2019-02-12T16:17:49.751Z,99.90
2019-02-12T16:20:19.595Z,99.90
2019-02-12T16:22:48.831Z,99.90
2019-02-12T16:25:18.366Z,99.90
2019-02-12T16:27:47.583Z,99.90
2019-02-12T16:30:43.927Z,99.90
2019-02-12T16:33:13.164Z,99.90
2019-02-12T16:35:42.383Z,99.90
2019-02-12T16:38:11.866Z,99.90
2019-02-12T16:40:41.784Z,99.90
2019-02-12T16:43:11.193Z,99.90
2019-02-12T16:45:47.676Z,99.90
2019-02-12T16:48:16.825Z,99.90
2019-02-12T16:50:46.178Z,99.90
2019-02-12T16:53:15.323Z,99.90
2019-02-12T16:55:44.559Z,99.90
2019-02-12T16:58:13.889Z,99.90
2019-02-12T17:00:43.394Z,99.90
2019-02-12T17:03:12.586Z,99.90
2019-02-12T17:05:42.122Z,99.90
2019-02-12T17:08:12.036Z,99.90
2019-02-12T17:10:41.217Z,99.90
2019-02-12T17:13:10.474Z,99.90
2019-02-12T17:15:39.725Z,99.90
2019-02-12T17:18:09.028Z,99.90
2019-02-12T17:20:38.377Z,99.90
2019-02-12T17:23:07.736Z,99.90
2019-02-12T17:25:36.943Z,99.90
2019-02-12T17:28:06.194Z,99.90
2019-02-12T17:30:35.424Z,99.90
2019-02-12T17:33:04.586Z,99.90
2019-02-12T17:35:33.844Z,99.90
2019-02-12T17:38:03.413Z,99.90
2019-02-12T17:40:33.047Z,99.90
2019-02-12T17:43:02.237Z,99.90
2019-02-12T17:45:31.445Z,99.90
2019-02-12T17:48:00.631Z,99.90
2019-02-12T17:50:30.125Z,99.90
2019-02-12T17:52:59.393Z,99.90
2019-02-12T17:55:28.689Z,99.90
2019-02-12T17:57:57.959Z,99.90
2019-02-12T18:00:30.330Z,99.90
2019-02-12T18:02:59.622Z,99.90
2019-02-12T18:05:29.261Z,99.90
2019-02-12T18:07:58.526Z,99.90
2019-02-12T18:10:27.805Z,99.90
2019-02-12T18:12:57.039Z,99.90
2019-02-12T18:15:26.593Z,99.90
2019-02-12T18:17:55.779Z,99.90
2019-02-12T18:20:26.796Z,99.90
2019-02-12T18:22:56.577Z,99.90
2019-02-12T18:25:25.795Z,99.90
2019-02-12T18:27:55.397Z,99.90
2019-02-12T18:30:25.019Z,99.90
2019-02-12T18:32:54.270Z,99.90
2019-02-12T18:35:24.261Z,99.90
2019-02-12T18:37:53.593Z,99.90
2019-02-12T18:40:23.574Z,99.90
2019-02-12T18:42:53.288Z,99.90
2019-02-12T18:45:22.528Z,99.90
2019-02-12T18:47:51.906Z,99.90
2019-02-12T18:50:21.158Z,99.90
2019-02-12T18:52:50.358Z,99.90
2019-02-12T18:55:20.073Z,99.90
2019-02-12T18:57:53.360Z,99.90
2019-02-12T19:00:24.970Z,99.90
2019-02-12T19:02:57.257Z,99.90
2019-02-12T19:05:28.300Z,99.90
2019-02-12T19:08:00.663Z,99.90
2019-02-12T19:10:30.831Z,99.90
2019-02-12T19:13:05.427Z,99.90
2019-02-12T19:15:38.956Z,99.90
2019-02-12T19:18:11.059Z,99.90
2019-02-12T19:20:40.229Z,99.90
2019-02-12T19:23:09.495Z,99.90
2019-02-12T19:25:39.162Z,99.90
2019-02-12T19:28:08.542Z,99.90
2019-02-12T19:30:37.961Z,99.90
2019-02-12T19:33:07.271Z,99.90
2019-02-12T19:35:36.503Z,99.90
2019-02-12T19:38:05.793Z,99.90
2019-02-12T19:40:35.705Z,99.90
2019-02-12T19:43:04.909Z,99.90
2019-02-12T19:45:34.221Z,99.90
2019-02-12T19:48:03.516Z,99.90
2019-02-12T19:50:33.238Z,99.90
2019-02-12T19:53:02.502Z,99.90
2019-02-12T19:55:31.694Z,99.90
2019-02-12T19:58:01.090Z,99.90
2019-02-12T20:00:32.479Z,99.90
2019-02-12T20:03:01.635Z,99.90
2019-02-12T20:05:30.979Z,99.90
2019-02-12T20:08:00.209Z,99.90
2019-02-12T20:10:30.172Z,99.90
2019-02-12T20:12:59.754Z,99.90
2019-02-12T20:15:28.913Z,99.90
2019-02-12T20:17:58.385Z,99.90
2019-02-12T20:20:27.566Z,99.90
2019-02-12T20:22:56.853Z,99.90
2019-02-12T20:25:26.011Z,99.90
2019-02-12T20:27:55.200Z,99.90
2019-02-12T20:30:24.436Z,99.90
2019-02-12T20:32:53.796Z,99.90
2019-02-12T20:35:22.962Z,99.90
2019-02-12T20:37:52.286Z,99.90
2019-02-12T20:40:21.615Z,99.90
2019-02-12T20:42:50.814Z,99.90
2019-02-12T20:45:20.463Z,99.90
2019-02-12T20:47:49.630Z,99.90
2019-02-12T20:50:19.143Z,99.90
2019-02-12T20:52:48.300Z,99.90
2019-02-12T20:55:17.461Z,99.90
2019-02-12T20:57:46.672Z,99.90
2019-02-12T21:00:17.208Z,99.90
2019-02-12T21:02:46.435Z,99.90
2019-02-12T21:05:16.146Z,99.90
2019-02-12T21:07:45.850Z,99.90
2019-02-12T21:10:16.181Z,99.90
2019-02-12T21:12:45.713Z,99.90
2019-02-12T21:15:17.189Z,99.90
2019-02-12T21:17:46.373Z,99.90
2019-02-12T21:20:15.898Z,99.90
2019-02-12T21:22:45.207Z,99.90
2019-02-12T21:25:14.549Z,99.90
2019-02-12T21:27:43.717Z,99.90
2019-02-12T21:30:15.936Z,99.90
2019-02-12T21:32:45.717Z,99.90
2019-02-12T21:35:15.370Z,99.90
2019-02-12T21:37:44.918Z,99.90
2019-02-12T21:40:16.578Z,99.90
2019-02-12T21:42:48.076Z,99.90
2019-02-12T21:45:19.825Z,99.90
2019-02-12T21:47:51.688Z,99.90
2019-02-12T21:50:23.002Z,99.90
2019-02-12T21:52:56.696Z,99.90
2019-02-12T21:55:26.005Z,99.90
2019-02-12T21:57:55.268Z,99.90
2019-02-12T22:00:24.482Z,99.90
2019-02-12T22:02:53.675Z,99.90
2019-02-12T22:05:23.017Z,99.90
2019-02-12T22:07:52.503Z,99.90
2019-02-12T22:10:21.668Z,99.90
2019-02-12T22:12:50.842Z,99.90
2019-02-12T22:15:19.976Z,99.90
2019-02-12T22:17:49.152Z,99.90
2019-02-12T22:20:18.788Z,99.90
2019-02-12T22:22:48.031Z,99.90
2019-02-12T22:25:17.262Z,99.90
2019-02-12T22:27:46.497Z,99.90
2019-02-12T22:30:17.846Z,99.90
2019-02-12T22:32:47.072Z,99.90
2019-02-12T22:35:16.290Z,99.90
2019-02-12T22:37:45.845Z,99.90
2019-02-12T22:40:15.375Z,99.90
2019-02-12T22:42:44.679Z,99.90
2019-02-12T22:45:15.856Z,99.90
2019-02-12T22:47:45.099Z,99.90
2019-02-12T22:50:14.394Z,99.90
2019-02-12T22:52:43.568Z,99.90
2019-02-12T22:55:13.242Z,99.90
2019-02-12T22:57:49.003Z,99.90
2019-02-12T23:00:33.843Z,99.90
2019-02-12T23:03:03.114Z,99.90
2019-02-12T23:05:32.401Z,99.90
2019-02-12T23:08:01.993Z,99.90
2019-02-12T23:10:31.919Z,99.90
2019-02-12T23:13:01.215Z,99.90
2019-02-12T23:15:30.807Z,99.90
2019-02-12T23:17:59.986Z,99.90
2019-02-12T23:20:29.262Z,99.90
2019-02-12T23:22:58.432Z,99.90
2019-02-12T23:25:27.963Z,99.90
2019-02-12T23:27:57.863Z,99.90
2019-02-12T23:30:27.594Z,99.90
2019-02-12T23:32:57.093Z,99.90
2019-02-12T23:35:26.255Z,99.90
2019-02-12T23:37:55.488Z,99.90
2019-02-12T23:40:24.825Z,99.90
2019-02-12T23:42:53.992Z,99.90
2019-02-12T23:45:23.168Z,99.90
2019-02-12T23:47:52.413Z,99.90
2019-02-12T23:50:21.628Z,99.90
2019-02-12T23:52:50.877Z,99.90
2019-02-12T23:55:20.109Z,99.90
2019-02-12T23:57:49.289Z,99.90
